• Join FlightAware (Why Join?)
  • Login
  • US Flag 
11:19AM EDT


 

Airport Tracker/Info


-or-


 

Live Flight TrackerFlight Track Log ✈ N9246F ✈ 29-May-2014 ✈ KTIX - KMLB

Flight Track Log - Related Links

Times and Time Zones

All times are in EDT time to prevent confusion due to time zone crossing. See the N9246F flight status page for this flight to view local times or setup timezone preferences in your user account.

Time Position Orientation Groundspeed Altitude Reporting Facility
EDT Latitude Longitude Course Direction KTS MPH feet Rate Location/Type
10:13AM 28.4667 -80.8833 159° South 81 93 2,900  Level Orlando TRACON
10:14AM 28.4333 -80.8833 180° South 101 116 3,000  Climbing Orlando TRACON
10:15AM 28.4167 -80.8833 180° South 105 121 2,900  Descending Orlando TRACON
10:16AM 28.4352 -80.7694 180° South  Level Estimated
10:16AM 28.3833 -80.8833 180° South 102 117 3,000  Level Orlando TRACON
10:17AM 28.4226 -80.7624 154° Southeast  Level FlightAware Approximate
10:17AM 28.3500 -80.8833 180° South 102 117 3,000  Level Orlando TRACON
10:18AM 28.4093 -80.7576 159° South  Level Estimated
10:18AM 28.3167 -80.8833 180° South 100 115 2,400  Level Orlando TRACON
10:19AM 28.3000 -80.8833 180° South 96 110 2,000 -240 Descending Orlando TRACON
10:20AM 28.2667 -80.8833 180° South 101 116 2,000  Level Orlando TRACON
10:21AM 28.2500 -80.8833 180° South 102 117 2,000  Level Orlando TRACON
10:22AM 28.2167 -80.8833 180° South 101 116 2,000  Level Orlando TRACON
10:23AM 28.1833 -80.8667 156° South 100 115 2,000  Level Orlando TRACON
10:24AM 28.1667 -80.8500 139° Southeast 103 119 2,000  Level Orlando TRACON
10:25AM 28.1333 -80.8500 180° South 105 121 2,000  Level Orlando TRACON
10:26AM 28.1167 -80.8333 139° Southeast 102 117 2,000  Level Orlando TRACON
10:27AM 28.0833 -80.8167 156° South 105 121 2,000  Level Orlando TRACON
10:28AM 28.1000 -80.7833 60° Northeast 97 112 2,000 -240 Level Orlando TRACON
10:29AM 28.1000 -80.7500 90° East 60 69 1,600 -300 Descending Orlando TRACON
10:30AM 28.1000 -80.7333 90° East 71 82 1,400 -300 Descending Orlando TRACON
10:31AM 28.1000 -80.7000 90° East 73 84 1,000 -420 Descending Orlando TRACON
10:32AM 28.1000 -80.6833 90° East 68 78 500 -180 Descending Orlando TRACON
10:34AM 28.1000 -80.6333 109° East 82 94 400 180 Descending Orlando TRACON
10:36AM 28.1000 -80.6000 90° East 73 84 1,200 600 Climbing Orlando TRACON
10:37AM 28.1000 -80.5833 90° East 77 89 1,800 600 Climbing Orlando TRACON
10:38AM 28.1000 -80.5500 90° East 78 90 2,400 540 Climbing Orlando TRACON
10:39AM 28.1167 -80.5333 41° Northeast 87 100 2,900 480 Climbing Orlando TRACON
10:40AM 28.1333 -80.5500 319° Northwest 98 113 3,400 420 Climbing Orlando TRACON
10:41AM 28.1167 -80.5833 240° Southwest 91 105 3,900 240 Climbing Orlando TRACON
10:42AM 28.1167 -80.6167 270° West 97 112 4,000  Climbing Orlando TRACON
10:43AM 28.1000 -80.6500 240° Southwest 100 115 3,900 -60 Descending Orlando TRACON
10:44AM 28.1000 -80.6667 270° West 108 124 3,900  Level Orlando TRACON
10:45AM 28.1167 -80.6667 360° North 106 122 4,000  Climbing Orlando TRACON
10:46AM 28.1000 -80.6333 120° Southeast 94 108 4,000 -60 Level Orlando TRACON
10:47AM 28.0833 -80.6333 180° South 105 121 3,900  Descending Orlando TRACON
10:48AM 28.1000 -80.6667 300° West 102 117 4,000  Climbing Orlando TRACON
10:49AM 28.1167 -80.6667 360° North 103 119 4,000  Level Orlando TRACON
10:50AM 28.1000 -80.6333 120° Southeast 90 104 4,000  Level Orlando TRACON